Time;durP1;ratioP1;P1;durP2;ratioP2;P2;SDS_P1;SDS_P2;PMS_P1;PMS_P2;Temp;Humidity;BMP_temperature;BMP_pressure;BME280_temperature;BME280_humidity;BME280_pressure;Samples;Min_cycle;Max_cycle;Signal;HPM_P1;HPM_P2
2023/09/13 00:01:51;;;;;;;5.78;5.15;;;21.40;99.90;;;;;;5093490;28;20119;-65
2023/09/13 00:04:16;;;;;;;7.88;5.53;;;21.20;99.90;;;;;;5079987;28;20020;-65
2023/09/13 00:06:42;;;;;;;6.70;5.80;;;21.10;99.90;;;;;;5093933;28;20077;-65
2023/09/13 00:09:08;;;;;;;9.27;6.30;;;21.00;99.90;;;;;;5080217;28;20082;-66
2023/09/13 00:11:35;;;;;;;8.45;6.10;;;21.00;99.90;;;;;;5076661;28;20146;-65
2023/09/13 00:14:01;;;;;;;6.45;5.75;;;21.00;99.90;;;;;;5057865;28;20514;-65
2023/09/13 00:16:26;;;;;;;8.23;6.05;;;20.90;99.90;;;;;;5089929;28;20110;-65
2023/09/13 00:18:52;;;;;;;9.20;6.60;;;20.90;99.90;;;;;;5092725;28;20031;-65
2023/09/13 00:21:17;;;;;;;9.05;6.60;;;20.90;99.90;;;;;;5084071;28;20024;-66
2023/09/13 00:23:43;;;;;;;8.48;6.00;;;20.90;99.90;;;;;;5092811;28;20465;-66
2023/09/13 00:26:09;;;;;;;9.48;6.43;;;20.80;99.90;;;;;;5076542;28;20056;-66
2023/09/13 00:28:35;;;;;;;9.52;7.22;;;20.70;99.90;;;;;;5073668;28;20036;-65
2023/09/13 00:31:00;;;;;;;10.57;6.97;;;20.40;99.90;;;;;;5071977;28;20583;-66
2023/09/13 00:33:26;;;;;;;11.18;8.05;;;20.30;99.90;;;;;;5088493;28;20021;-65
2023/09/13 00:35:56;;;;;;;8.85;6.53;;;20.10;99.90;;;;;;5086308;28;20032;-65
2023/09/13 00:38:21;;;;;;;12.57;7.28;;;20.00;99.90;;;;;;5093422;28;20031;-66
2023/09/13 00:40:47;;;;;;;11.25;7.97;;;19.70;99.90;;;;;;5092512;28;20369;-66
2023/09/13 00:43:13;;;;;;;12.25;7.80;;;19.50;99.90;;;;;;5093518;28;20020;-66
2023/09/13 00:45:39;;;;;;;10.13;8.48;;;19.30;99.90;;;;;;5108326;28;20083;-66
2023/09/13 00:48:05;;;;;;;12.05;9.10;;;19.10;99.90;;;;;;5103105;28;20044;-66
2023/09/13 00:50:31;;;;;;;12.48;9.68;;;19.00;99.90;;;;;;5113506;28;20036;-66
2023/09/13 00:52:57;;;;;;;13.52;9.95;;;19.00;99.90;;;;;;5081250;28;20079;-65
2023/09/13 00:55:24;;;;;;;13.43;10.13;;;18.90;99.90;;;;;;5107723;28;20412;-65
2023/09/13 00:57:50;;;;;;;15.43;10.10;;;18.80;99.90;;;;;;5112850;28;20031;-65
2023/09/13 01:00:17;;;;;;;16.10;10.43;;;18.70;99.90;;;;;;5101710;28;20060;-65
2023/09/13 01:02:44;;;;;;;15.63;11.05;;;18.70;99.90;;;;;;5101880;28;20032;-65
2023/09/13 01:05:12;;;;;;;14.02;11.20;;;18.60;99.90;;;;;;5109549;28;20028;-66
2023/09/13 01:07:40;;;;;;;14.77;11.40;;;18.60;99.90;;;;;;5113552;28;20118;-66
2023/09/13 01:10:07;;;;;;;15.27;12.90;;;18.50;99.90;;;;;;5092933;28;20042;-66
2023/09/13 01:12:33;;;;;;;19.27;13.00;;;18.50;99.90;;;;;;5094276;28;20025;-67
2023/09/13 01:15:00;;;;;;;14.20;12.15;;;18.50;99.90;;;;;;5094229;28;20028;-65
2023/09/13 01:17:37;;;;;;;18.83;13.50;;;18.50;99.90;;;;;;5097247;28;20035;-66
2023/09/13 01:20:10;;;;;;;16.05;12.82;;;18.40;99.90;;;;;;5078003;28;21112;-65
2023/09/13 01:23:12;;;;;;;16.67;13.65;;;18.40;99.90;;;;;;5087983;28;20020;-66
2023/09/13 01:26:15;;;;;;;17.52;13.73;;;18.50;99.90;;;;;;5095506;28;20028;-66
2023/09/13 01:28:53;;;;;;;16.85;13.85;;;18.40;99.90;;;;;;5092570;28;20107;-65
2023/09/13 01:31:21;;;;;;;16.88;12.55;;;18.40;99.90;;;;;;5097339;28;20027;-65
2023/09/13 01:33:47;;;;;;;16.55;14.15;;;18.40;99.90;;;;;;5090833;28;20103;-65
2023/09/13 01:36:13;;;;;;;15.88;13.02;;;18.40;99.90;;;;;;5093168;28;20027;-65
2023/09/13 01:38:39;;;;;;;14.50;12.55;;;18.40;99.90;;;;;;5091369;28;20066;-65
2023/09/13 01:41:30;;;;;;;17.30;13.52;;;18.40;99.90;;;;;;5095983;28;20170;-66
2023/09/13 01:43:56;;;;;;;14.90;13.07;;;18.40;99.90;;;;;;5111806;28;20028;-65
2023/09/13 01:46:27;;;;;;;19.45;13.27;;;18.30;99.90;;;;;;5112699;28;20032;-66
2023/09/13 01:48:57;;;;;;;17.08;14.25;;;18.30;99.90;;;;;;5111846;28;20134;-65
2023/09/13 01:51:26;;;;;;;15.43;12.35;;;18.30;99.90;;;;;;5105475;28;20687;-66
2023/09/13 01:53:54;;;;;;;16.27;13.10;;;18.30;99.90;;;;;;5091476;28;20107;-65
2023/09/13 01:56:21;;;;;;;15.57;13.93;;;18.30;99.90;;;;;;5109329;28;20408;-65
2023/09/13 01:58:50;;;;;;;17.92;13.95;;;18.20;99.90;;;;;;5111426;28;20163;-65
2023/09/13 02:01:16;;;;;;;16.67;13.02;;;18.20;99.90;;;;;;5112885;28;20028;-65
2023/09/13 02:03:43;;;;;;;14.30;12.50;;;18.20;99.90;;;;;;5111290;28;20467;-65
2023/09/13 02:06:08;;;;;;;14.23;12.20;;;18.20;99.90;;;;;;5112505;28;20023;-65
2023/09/13 02:08:35;;;;;;;15.85;11.82;;;18.20;99.90;;;;;;5098206;28;20464;-65
2023/09/13 02:11:01;;;;;;;14.27;11.23;;;18.20;99.90;;;;;;5106398;28;20030;-65
2023/09/13 02:13:26;;;;;;;14.50;11.30;;;18.20;99.90;;;;;;5105227;28;20111;-65
2023/09/13 02:15:52;;;;;;;13.77;10.70;;;18.10;99.90;;;;;;5111785;28;20088;-66
2023/09/13 02:18:17;;;;;;;11.68;10.48;;;18.10;99.90;;;;;;5095485;28;20391;-65
2023/09/13 02:20:44;;;;;;;13.32;10.43;;;18.00;99.90;;;;;;5106045;28;20069;-65
2023/09/13 02:23:10;;;;;;;11.25;9.93;;;18.00;99.90;;;;;;5106373;28;20034;-65
2023/09/13 02:25:40;;;;;;;12.05;9.40;;;18.00;99.90;;;;;;5112428;28;20028;-65
2023/09/13 02:28:06;;;;;;;12.20;9.40;;;17.90;99.90;;;;;;5111139;28;20027;-65
2023/09/13 02:30:34;;;;;;;11.45;9.52;;;17.80;99.90;;;;;;5093635;28;20032;-66
2023/09/13 02:33:00;;;;;;;10.10;8.30;;;17.90;99.90;;;;;;5089240;28;20056;-65
2023/09/13 02:35:26;;;;;;;9.57;8.27;;;17.80;99.90;;;;;;5111125;28;20066;-66
2023/09/13 02:37:51;;;;;;;11.05;7.82;;;17.80;99.90;;;;;;5110564;28;20357;-65
2023/09/13 02:40:17;;;;;;;8.45;7.60;;;17.70;99.90;;;;;;5112262;28;20023;-65
2023/09/13 02:42:43;;;;;;;10.32;8.40;;;17.70;99.90;;;;;;5111180;28;20103;-65
2023/09/13 02:45:09;;;;;;;13.45;7.93;;;17.70;99.90;;;;;;5111401;28;20378;-66
2023/09/13 02:47:35;;;;;;;8.90;7.85;;;17.60;99.90;;;;;;5111376;28;20031;-65
2023/09/13 02:50:01;;;;;;;8.80;7.88;;;17.60;99.90;;;;;;5110796;28;20084;-65
2023/09/13 02:52:30;;;;;;;8.73;7.05;;;17.60;99.90;;;;;;5096481;28;20020;-66
2023/09/13 02:54:57;;;;;;;12.23;8.52;;;17.50;99.90;;;;;;5100568;28;20130;-66
2023/09/13 02:57:23;;;;;;;10.70;7.65;;;17.50;99.90;;;;;;5111262;28;20035;-65
2023/09/13 02:59:50;;;;;;;7.53;6.72;;;17.50;99.90;;;;;;5110611;28;20030;-65
2023/09/13 03:02:15;;;;;;;8.23;6.38;;;17.50;99.90;;;;;;5111688;28;20027;-65
2023/09/13 03:04:41;;;;;;;10.55;7.43;;;17.60;99.90;;;;;;5110967;28;20028;-65
2023/09/13 03:07:08;;;;;;;8.40;6.40;;;17.60;99.90;;;;;;5103140;28;20111;-65
2023/09/13 03:09:33;;;;;;;6.85;6.15;;;17.60;99.90;;;;;;5107372;28;20496;-66
2023/09/13 03:11:59;;;;;;;7.70;5.72;;;17.60;99.90;;;;;;5110854;28;20028;-65
2023/09/13 03:14:25;;;;;;;6.78;6.15;;;17.70;99.90;;;;;;5103907;28;20559;-65
2023/09/13 03:16:51;;;;;;;7.03;6.32;;;17.70;99.90;;;;;;5103786;28;20027;-65
2023/09/13 03:19:16;;;;;;;7.80;6.40;;;17.60;99.90;;;;;;5111126;28;20081;-65
2023/09/13 03:21:45;;;;;;;7.80;6.47;;;17.60;99.90;;;;;;5101260;28;20118;-66
2023/09/13 03:24:10;;;;;;;9.00;6.95;;;17.60;99.90;;;;;;5111143;28;20028;-66
2023/09/13 03:26:36;;;;;;;8.18;6.90;;;17.50;99.90;;;;;;5111683;28;20114;-65
2023/09/13 03:29:02;;;;;;;9.30;7.30;;;17.60;99.90;;;;;;5100940;28;20464;-65
2023/09/13 03:31:28;;;;;;;10.52;7.68;;;17.50;99.90;;;;;;5098416;28;20028;-65
2023/09/13 03:33:56;;;;;;;8.77;7.88;;;17.60;99.90;;;;;;5092027;28;20096;-65
2023/09/13 03:36:22;;;;;;;8.55;6.93;;;17.60;99.90;;;;;;5111118;28;20388;-65
2023/09/13 03:38:48;;;;;;;8.13;7.30;;;17.50;99.90;;;;;;5087528;28;20318;-65
2023/09/13 03:41:18;;;;;;;8.80;7.90;;;17.60;99.90;;;;;;5107293;28;20029;-65
2023/09/13 03:43:44;;;;;;;9.13;8.13;;;17.50;99.90;;;;;;5101743;28;20059;-64
2023/09/13 03:46:10;;;;;;;9.95;8.30;;;17.50;99.90;;;;;;5110962;28;20310;-66
2023/09/13 03:48:37;;;;;;;9.88;8.57;;;17.50;99.90;;;;;;5110599;28;20031;-65
2023/09/13 03:51:03;;;;;;;10.23;8.90;;;17.50;99.90;;;;;;5092162;28;20020;-65
2023/09/13 03:53:29;;;;;;;11.60;9.27;;;17.50;99.90;;;;;;5092831;28;20023;-66
2023/09/13 03:55:55;;;;;;;10.52;9.52;;;17.50;99.90;;;;;;5094209;28;20028;-65
2023/09/13 03:58:21;;;;;;;11.18;10.07;;;17.50;99.90;;;;;;5099415;28;20451;-65
2023/09/13 04:00:47;;;;;;;15.30;10.05;;;17.50;99.90;;;;;;5103962;28;20035;-64
2023/09/13 04:03:14;;;;;;;13.30;9.85;;;17.60;99.90;;;;;;5101682;28;20348;-65
2023/09/13 04:05:40;;;;;;;12.65;9.88;;;17.60;99.90;;;;;;5110967;28;20036;-65
2023/09/13 04:08:06;;;;;;;12.32;10.57;;;17.60;99.90;;;;;;5110176;28;20120;-65
2023/09/13 04:10:31;;;;;;;13.30;10.25;;;17.50;99.90;;;;;;5110833;28;20035;-66
2023/09/13 04:12:57;;;;;;;14.05;9.35;;;17.50;99.90;;;;;;5103258;28;20115;-65
2023/09/13 04:15:22;;;;;;;10.52;9.32;;;17.60;99.90;;;;;;5108263;28;20032;-65
2023/09/13 04:17:48;;;;;;;11.35;9.98;;;17.60;99.90;;;;;;5107165;28;20028;-65
2023/09/13 04:20:13;;;;;;;9.80;8.63;;;17.60;99.90;;;;;;5102527;28;20028;-65
2023/09/13 04:22:39;;;;;;;9.50;8.23;;;17.50;99.90;;;;;;5110582;28;20062;-65
2023/09/13 04:25:05;;;;;;;12.73;8.70;;;17.60;99.90;;;;;;5113646;28;20481;-66
2023/09/13 04:27:31;;;;;;;11.10;8.77;;;17.50;99.90;;;;;;5114557;28;20036;-66
2023/09/13 04:29:57;;;;;;;9.00;7.97;;;17.50;99.90;;;;;;5112576;28;20051;-66
2023/09/13 04:32:26;;;;;;;10.07;8.85;;;17.50;99.90;;;;;;5105334;28;20063;-66
2023/09/13 04:34:53;;;;;;;10.50;8.32;;;17.50;99.90;;;;;;5113280;28;20027;-66
2023/09/13 04:37:19;;;;;;;13.90;9.00;;;17.40;99.90;;;;;;5104767;28;20096;-66
2023/09/13 04:39:45;;;;;;;9.57;8.65;;;17.50;99.90;;;;;;5112740;28;20067;-65
2023/09/13 04:42:11;;;;;;;12.73;7.60;;;17.50;99.90;;;;;;5114123;28;20027;-66
2023/09/13 04:44:37;;;;;;;10.65;7.55;;;17.50;99.90;;;;;;5113445;28;20174;-65
2023/09/13 04:47:03;;;;;;;10.07;7.45;;;17.50;99.90;;;;;;5111803;28;20070;-65
2023/09/13 04:49:29;;;;;;;9.77;7.22;;;17.50;99.90;;;;;;5113776;28;20032;-65
2023/09/13 04:51:56;;;;;;;11.60;7.15;;;17.50;99.90;;;;;;5090109;28;20032;-66
2023/09/13 04:54:22;;;;;;;8.38;7.43;;;17.50;99.90;;;;;;5093198;28;20166;-66
2023/09/13 04:56:51;;;;;;;8.85;6.93;;;17.60;99.90;;;;;;5102862;28;20487;-66
2023/09/13 04:59:18;;;;;;;7.03;6.32;;;17.60;99.90;;;;;;5099498;28;20031;-66
2023/09/13 05:01:43;;;;;;;7.90;6.85;;;17.50;99.90;;;;;;5099259;28;20097;-65
2023/09/13 05:04:10;;;;;;;8.80;7.20;;;17.50;99.90;;;;;;5113673;28;20118;-66
2023/09/13 05:06:35;;;;;;;9.70;7.30;;;17.60;99.90;;;;;;5106782;28;20039;-66
2023/09/13 05:09:01;;;;;;;7.75;6.45;;;17.50;99.90;;;;;;5111091;28;20031;-66
2023/09/13 05:11:27;;;;;;;8.20;7.20;;;17.60;99.90;;;;;;5101018;28;20032;-66
2023/09/13 05:14:09;;;;;;;8.18;7.38;;;17.60;99.90;;;;;;5105662;28;21497;-68
2023/09/13 05:16:35;;;;;;;8.38;6.95;;;17.60;99.90;;;;;;5086995;28;20059;-69
2023/09/13 05:19:00;;;;;;;9.38;7.15;;;17.70;99.90;;;;;;5109649;28;20051;-68
2023/09/13 05:21:26;;;;;;;9.32;7.97;;;17.70;99.90;;;;;;5100746;28;20385;-68
2023/09/13 05:23:51;;;;;;;8.13;7.40;;;17.70;99.90;;;;;;5111932;28;20032;-68
2023/09/13 05:26:17;;;;;;;8.27;7.18;;;17.80;99.90;;;;;;5094637;28;20386;-69
2023/09/13 05:28:43;;;;;;;8.80;7.90;;;17.80;99.90;;;;;;5112269;28;20032;-71
2023/09/13 05:31:08;;;;;;;9.80;8.00;;;17.80;99.90;;;;;;5103567;28;20031;-69
2023/09/13 05:33:34;;;;;;;9.38;7.18;;;17.80;99.90;;;;;;5101856;28;20055;-68
2023/09/13 05:36:00;;;;;;;8.27;7.47;;;17.90;99.90;;;;;;5112097;28;20023;-70
2023/09/13 05:38:25;;;;;;;10.15;8.13;;;18.00;99.90;;;;;;5094386;28;20031;-68
2023/09/13 05:40:51;;;;;;;8.50;6.93;;;18.10;99.90;;;;;;5112377;28;20098;-68
2023/09/13 05:43:17;;;;;;;5.43;4.93;;;18.20;99.90;;;;;;5112302;28;20027;-69
2023/09/13 05:45:42;;;;;;;5.40;4.90;;;18.30;99.90;;;;;;5092197;28;20091;-70
2023/09/13 05:48:08;;;;;;;9.75;5.75;;;18.30;99.90;;;;;;5112411;28;20134;-67
2023/09/13 05:50:34;;;;;;;9.73;6.00;;;18.40;99.90;;;;;;5112364;28;20031;-67
2023/09/13 05:53:00;;;;;;;7.50;6.25;;;18.40;99.90;;;;;;5093634;28;20035;-66
2023/09/13 05:55:25;;;;;;;9.20;5.82;;;18.50;99.90;;;;;;5106383;28;20028;-66
2023/09/13 05:57:51;;;;;;;6.00;5.25;;;18.50;99.90;;;;;;5110372;28;20032;-66
2023/09/13 06:00:17;;;;;;;9.70;6.50;;;18.60;99.90;;;;;;5094741;28;20028;-67
2023/09/13 06:02:43;;;;;;;6.78;5.32;;;18.70;99.90;;;;;;5094063;28;20024;-69
2023/09/13 06:05:11;;;;;;;8.55;6.38;;;18.70;99.90;;;;;;5094001;28;20067;-68
2023/09/13 06:07:37;;;;;;;7.90;5.90;;;18.70;99.90;;;;;;5099047;28;20488;-71
2023/09/13 06:10:04;;;;;;;8.93;6.15;;;18.70;99.90;;;;;;5091085;28;20071;-71
2023/09/13 06:12:31;;;;;;;9.90;6.10;;;18.80;99.90;;;;;;5102635;28;20051;-71
2023/09/13 06:14:57;;;;;;;5.88;5.28;;;18.80;99.90;;;;;;5100085;28;20496;-71
2023/09/13 06:17:23;;;;;;;5.97;5.38;;;18.80;99.90;;;;;;5111000;28;20115;-71
2023/09/13 06:19:50;;;;;;;10.68;6.22;;;18.70;99.90;;;;;;5099024;28;20020;-71
2023/09/13 06:22:17;;;;;;;8.05;5.97;;;18.70;99.90;;;;;;5083738;28;20016;-71
2023/09/13 06:24:42;;;;;;;6.63;5.85;;;18.70;99.90;;;;;;5105404;28;20075;-72
2023/09/13 06:27:08;;;;;;;7.10;5.20;;;18.60;99.90;;;;;;5102957;28;20112;-72
2023/09/13 06:29:33;;;;;;;6.88;5.47;;;18.60;99.90;;;;;;5098152;28;20587;-71
2023/09/13 06:31:59;;;;;;;8.93;5.80;;;18.70;99.90;;;;;;5101076;28;20076;-71
2023/09/13 06:34:25;;;;;;;6.75;4.70;;;18.70;99.90;;;;;;5106780;28;20020;-70
2023/09/13 06:36:50;;;;;;;5.57;5.07;;;18.70;99.90;;;;;;5093959;28;20032;-77
2023/09/13 06:39:18;;;;;;;5.30;4.78;;;18.70;99.90;;;;;;5067191;28;20034;-73
2023/09/13 06:41:43;;;;;;;6.18;5.20;;;18.70;99.90;;;;;;5100698;28;20468;-72
2023/09/13 06:44:09;;;;;;;5.35;4.78;;;18.70;99.90;;;;;;5105694;28;20081;-73
2023/09/13 06:46:38;;;;;;;6.95;5.10;;;18.80;99.90;;;;;;5097333;28;20074;-73
2023/09/13 06:49:04;;;;;;;5.78;4.55;;;18.80;99.90;;;;;;5101835;28;20080;-72
2023/09/13 06:51:30;;;;;;;6.05;5.45;;;18.90;99.90;;;;;;5101983;28;20024;-73
2023/09/13 06:53:56;;;;;;;5.40;4.78;;;18.90;99.90;;;;;;5093479;28;20099;-73
2023/09/13 06:56:21;;;;;;;6.53;5.00;;;19.00;99.90;;;;;;5086406;28;20102;-73
2023/09/13 06:58:47;;;;;;;7.85;5.40;;;19.20;99.90;;;;;;5099826;28;20024;-74
2023/09/13 07:01:13;;;;;;;6.47;5.28;;;19.30;99.90;;;;;;5104140;28;20056;-73
2023/09/13 07:03:39;;;;;;;4.75;4.35;;;19.40;99.90;;;;;;5093076;28;20627;-73
2023/09/13 07:06:05;;;;;;;5.35;4.65;;;19.50;99.90;;;;;;5101725;28;20102;-74
2023/09/13 07:08:31;;;;;;;5.40;4.90;;;19.70;99.90;;;;;;5102682;28;20431;-73
2023/09/13 07:10:57;;;;;;;6.70;4.88;;;19.90;99.90;;;;;;5103567;28;20041;-75
2023/09/13 07:13:23;;;;;;;6.20;4.40;;;20.10;99.90;;;;;;5094707;28;20028;-74
2023/09/13 07:15:50;;;;;;;5.30;4.38;;;20.20;99.90;;;;;;5104325;28;20022;-74
2023/09/13 07:18:15;;;;;;;5.03;3.95;;;20.20;99.90;;;;;;5106728;28;20038;-74
2023/09/13 07:20:41;;;;;;;6.20;4.43;;;20.10;99.90;;;;;;5093424;28;20477;-73
2023/09/13 07:23:06;;;;;;;6.65;4.45;;;20.10;99.90;;;;;;5097850;28;20024;-74
2023/09/13 07:25:32;;;;;;;5.32;4.82;;;20.10;99.90;;;;;;5106941;28;20020;-74
2023/09/13 07:27:59;;;;;;;9.02;4.72;;;20.10;99.90;;;;;;5108702;28;20085;-74
2023/09/13 07:30:26;;;;;;;5.72;4.60;;;20.10;99.90;;;;;;5084163;28;20024;-75
2023/09/13 07:32:52;;;;;;;4.57;3.95;;;20.10;99.90;;;;;;5096585;28;20066;-74
2023/09/13 07:35:18;;;;;;;5.25;4.10;;;20.10;99.90;;;;;;5109351;28;20100;-72
2023/09/13 07:37:43;;;;;;;6.07;4.47;;;20.10;99.90;;;;;;5098236;28;20039;-73
2023/09/13 07:40:10;;;;;;;6.85;5.53;;;20.10;99.90;;;;;;5101312;28;20039;-75
2023/09/13 07:42:36;;;;;;;5.38;4.65;;;20.10;99.90;;;;;;5078882;28;20051;-75
2023/09/13 07:45:02;;;;;;;5.25;4.50;;;20.20;99.90;;;;;;5102210;28;20149;-75
2023/09/13 07:47:30;;;;;;;4.63;4.15;;;20.30;99.90;;;;;;5094432;28;20028;-75
2023/09/13 07:49:59;;;;;;;6.30;4.28;;;20.30;99.90;;;;;;5102957;28;20035;-74
2023/09/13 07:52:25;;;;;;;6.53;4.00;;;20.30;99.90;;;;;;5091757;28;20461;-74
2023/09/13 07:54:51;;;;;;;5.28;3.72;;;20.40;99.90;;;;;;5090091;28;20031;-74
2023/09/13 07:57:17;;;;;;;4.45;3.67;;;20.40;99.90;;;;;;5102457;28;20058;-74
2023/09/13 07:59:42;;;;;;;4.30;3.90;;;20.40;99.90;;;;;;5109924;28;20371;-73
2023/09/13 08:02:08;;;;;;;5.85;4.57;;;20.40;99.90;;;;;;5114272;28;20028;-74
2023/09/13 08:04:34;;;;;;;5.90;4.07;;;20.40;99.90;;;;;;5089180;28;20020;-74
2023/09/13 08:07:00;;;;;;;6.53;4.25;;;20.40;99.90;;;;;;5104488;28;20236;-74
2023/09/13 08:09:26;;;;;;;5.57;4.47;;;20.40;99.90;;;;;;5112451;28;20036;-75
2023/09/13 08:11:52;;;;;;;4.45;4.05;;;20.50;99.90;;;;;;5101918;28;20024;-75
2023/09/13 08:14:18;;;;;;;5.70;3.97;;;20.60;99.90;;;;;;5104004;28;20031;-73
2023/09/13 08:16:44;;;;;;;4.50;4.10;;;20.70;99.90;;;;;;5106138;28;20091;-74
2023/09/13 08:19:10;;;;;;;6.97;3.65;;;20.80;99.90;;;;;;5101250;28;20192;-75
2023/09/13 08:21:36;;;;;;;4.60;3.60;;;20.90;99.90;;;;;;5098680;28;20020;-76
2023/09/13 08:24:03;;;;;;;4.78;3.65;;;21.00;99.90;;;;;;5106508;28;20111;-75
2023/09/13 08:26:30;;;;;;;7.38;4.00;;;21.10;99.90;;;;;;5109881;28;20024;-75
2023/09/13 08:28:56;;;;;;;4.43;3.47;;;21.00;99.90;;;;;;5107124;28;20025;-74
2023/09/13 08:31:25;;;;;;;4.00;3.40;;;21.00;99.90;;;;;;5099135;28;20028;-74
2023/09/13 08:33:54;;;;;;;4.20;3.80;;;21.00;99.90;;;;;;5104826;28;20035;-75
2023/09/13 08:36:20;;;;;;;4.53;3.58;;;20.90;99.90;;;;;;5110673;28;20708;-74
2023/09/13 08:38:45;;;;;;;4.18;3.88;;;20.90;99.90;;;;;;5093230;28;20084;-74
2023/09/13 08:41:13;;;;;;;4.00;3.45;;;21.00;99.90;;;;;;5100654;28;20028;-74
2023/09/13 08:43:40;;;;;;;4.93;3.63;;;20.90;99.90;;;;;;5092730;28;20023;-73
2023/09/13 08:46:06;;;;;;;5.93;3.97;;;20.90;99.90;;;;;;5099213;28;20047;-74
2023/09/13 08:48:33;;;;;;;5.57;3.80;;;20.80;99.90;;;;;;5099635;28;20111;-75
2023/09/13 08:51:03;;;;;;;4.72;3.78;;;20.80;99.90;;;;;;5102347;28;20040;-75
2023/09/13 08:53:31;;;;;;;5.55;3.30;;;20.70;99.90;;;;;;5091429;28;20082;-74
2023/09/13 08:55:58;;;;;;;4.57;3.50;;;20.60;99.90;;;;;;5099433;28;20034;-74
2023/09/13 08:58:25;;;;;;;4.20;3.72;;;20.50;99.90;;;;;;5104162;28;20460;-74
2023/09/13 09:00:53;;;;;;;4.80;4.07;;;20.50;99.90;;;;;;5111342;28;20019;-74
2023/09/13 09:03:23;;;;;;;9.27;3.85;;;20.50;99.90;;;;;;5103632;28;20035;-74
2023/09/13 09:05:49;;;;;;;;;;;20.50;99.90;;;;;;5105262;28;20070;-74
2023/09/13 09:08:15;;;;;;;4.55;3.80;;;20.50;99.90;;;;;;5106487;28;20340;-74
2023/09/13 09:10:42;;;;;;;4.70;3.78;;;20.50;99.90;;;;;;5107491;28;20036;-73
2023/09/13 09:13:10;;;;;;;4.53;3.63;;;20.20;99.90;;;;;;5098137;28;20039;-74
2023/09/13 09:15:38;;;;;;;5.95;3.78;;;20.00;99.90;;;;;;5107437;28;20073;-73
2023/09/13 09:18:08;;;;;;;6.78;4.40;;;19.90;99.90;;;;;;5109014;28;20035;-74
2023/09/13 09:20:37;;;;;;;7.25;4.35;;;19.80;99.90;;;;;;5096219;28;20024;-74
2023/09/13 09:23:06;;;;;;;4.22;3.55;;;19.80;99.90;;;;;;5094293;28;20159;-73
2023/09/13 09:25:32;;;;;;;4.75;3.25;;;19.90;99.90;;;;;;5082545;28;20030;-73
2023/09/13 09:27:57;;;;;;;5.05;3.83;;;20.00;99.90;;;;;;5068334;28;20036;-80
2023/09/13 09:30:31;;;;;;;3.75;3.40;;;20.10;99.90;;;;;;5109903;28;20441;-81
2023/09/13 09:33:05;;;;;;;5.07;3.75;;;20.30;99.90;;;;;;5109803;28;20027;-83
2023/09/13 09:35:31;;;;;;;5.18;3.60;;;20.40;99.90;;;;;;5110962;28;20043;-72
2023/09/13 09:37:57;;;;;;;3.95;3.45;;;20.50;99.90;;;;;;5108011;28;20138;-72
2023/09/13 09:40:23;;;;;;;4.05;3.60;;;20.60;99.90;;;;;;5109797;28;20031;-73
2023/09/13 09:42:56;;;;;;;4.05;3.60;;;20.80;99.90;;;;;;5094951;28;20020;-70
2023/09/13 09:45:23;;;;;;;4.85;3.30;;;20.90;99.90;;;;;;5098312;28;20126;-70
2023/09/13 09:47:50;;;;;;;4.75;3.03;;;21.00;99.90;;;;;;5112044;28;20032;-71
2023/09/13 09:50:16;;;;;;;4.38;3.10;;;21.10;99.90;;;;;;5085955;28;20532;-71
2023/09/13 09:52:42;;;;;;;5.28;3.65;;;21.00;99.90;;;;;;5093942;28;20114;-70
2023/09/13 09:55:13;;;;;;;3.55;3.25;;;20.90;99.90;;;;;;5106440;28;20061;-71
2023/09/13 09:57:46;;;;;;;4.20;3.63;;;20.70;99.90;;;;;;5104704;28;20150;-70
2023/09/13 10:00:12;;;;;;;5.10;3.92;;;20.50;99.90;;;;;;5092832;28;20038;-71
2023/09/13 10:02:38;;;;;;;3.72;3.15;;;20.30;99.90;;;;;;5084993;28;20016;-72
2023/09/13 10:05:05;;;;;;;5.95;3.78;;;20.30;99.90;;;;;;5102227;28;20380;-71
2023/09/13 10:07:40;;;;;;;4.68;3.60;;;20.20;99.90;;;;;;5086722;28;20080;-71
2023/09/13 10:10:09;;;;;;;6.72;4.38;;;20.20;99.90;;;;;;5098911;28;20494;-71
2023/09/13 10:12:44;;;;;;;3.90;3.33;;;20.30;99.90;;;;;;5098726;28;20103;-71
2023/09/13 10:15:10;;;;;;;4.78;3.78;;;20.30;99.90;;;;;;5103716;28;20038;-71
2023/09/13 10:17:39;;;;;;;5.13;3.80;;;20.40;99.90;;;;;;5097648;28;20055;-71
2023/09/13 10:20:06;;;;;;;5.50;3.75;;;20.40;99.90;;;;;;5092971;28;20024;-71
2023/09/13 10:22:35;;;;;;;5.90;3.63;;;20.50;99.90;;;;;;5105284;28;20047;-69
2023/09/13 10:25:04;;;;;;;3.47;3.03;;;20.60;99.90;;;;;;5092637;28;20095;-68
2023/09/13 10:27:31;;;;;;;3.28;2.97;;;20.60;99.90;;;;;;5097321;28;20043;-69
2023/09/13 10:29:57;;;;;;;3.95;3.05;;;20.70;99.90;;;;;;5098164;28;20035;-69
2023/09/13 10:32:28;;;;;;;3.35;3.05;;;20.70;99.90;;;;;;5101473;28;20016;-68
2023/09/13 10:34:58;;;;;;;3.13;2.83;;;20.80;99.90;;;;;;5093577;28;20032;-69
2023/09/13 10:37:52;;;;;;;3.83;3.05;;;20.90;99.90;;;;;;5094664;28;20055;-69
2023/09/13 10:40:27;;;;;;;4.00;3.60;;;21.10;99.90;;;;;;5106648;28;20541;-68
2023/09/13 10:42:53;;;;;;;4.53;3.25;;;21.20;99.90;;;;;;5105189;28;20103;-68
2023/09/13 10:45:19;;;;;;;3.17;2.97;;;21.20;99.90;;;;;;5095867;28;20461;-68
2023/09/13 10:47:49;;;;;;;4.47;3.63;;;21.20;99.90;;;;;;5097612;28;20035;-68
2023/09/13 10:50:15;;;;;;;3.60;3.28;;;21.30;99.90;;;;;;5104999;28;20099;-69
2023/09/13 10:52:43;;;;;;;5.63;3.35;;;21.30;99.90;;;;;;5093261;28;20127;-70
2023/09/13 10:55:14;;;;;;;3.40;3.10;;;21.30;99.90;;;;;;5101646;28;20452;-72
2023/09/13 10:57:41;;;;;;;3.80;3.25;;;21.40;99.90;;;;;;5083422;28;20052;-71
2023/09/13 11:00:11;;;;;;;4.28;3.88;;;21.50;99.90;;;;;;5094714;28;20073;-71
2023/09/13 11:02:42;;;;;;;4.13;3.72;;;21.50;99.90;;;;;;5089030;28;20027;-70
2023/09/13 11:05:09;;;;;;;4.00;3.38;;;21.50;99.90;;;;;;5102744;28;20027;-71
2023/09/13 11:07:41;;;;;;;3.80;3.40;;;21.60;99.90;;;;;;5109431;28;20080;-73
2023/09/13 11:10:12;;;;;;;5.80;3.10;;;21.80;99.90;;;;;;5097279;28;20026;-72
2023/09/13 11:12:39;;;;;;;4.50;3.90;;;22.00;99.90;;;;;;5090001;28;20024;-70
2023/09/13 11:15:21;;;;;;;5.60;3.70;;;22.30;99.90;;;;;;5105561;28;20024;-70
2023/09/13 11:17:47;;;;;;;4.25;3.35;;;22.60;99.90;;;;;;5096077;28;20379;-70
2023/09/13 11:20:24;;;;;;;7.00;3.65;;;22.80;99.90;;;;;;5097648;28;20042;-70
2023/09/13 11:23:09;;;;;;;7.50;3.92;;;23.00;99.90;;;;;;5097846;28;20027;-67
2023/09/13 11:25:40;;;;;;;4.93;3.60;;;23.10;99.90;;;;;;5088971;28;20025;-67
2023/09/13 11:28:07;;;;;;;6.15;3.03;;;23.20;99.90;;;;;;5090407;28;20050;-67
2023/09/13 11:30:47;;;;;;;6.60;3.90;;;23.30;99.90;;;;;;5098523;28;20137;-67
2023/09/13 11:33:13;;;;;;;5.97;3.90;;;23.40;99.90;;;;;;5114778;28;20065;-68
2023/09/13 11:35:39;;;;;;;3.53;3.10;;;23.50;99.90;;;;;;5099172;28;20039;-68
2023/09/13 11:38:06;;;;;;;3.70;3.30;;;23.50;99.90;;;;;;5101665;28;20119;-67
2023/09/13 11:40:31;;;;;;;3.83;3.40;;;23.50;99.90;;;;;;5109270;28;20074;-67
2023/09/13 11:42:59;;;;;;;4.78;3.80;;;23.50;99.90;;;;;;5107152;28;20387;-67
2023/09/13 11:45:30;;;;;;;3.30;3.00;;;23.60;99.90;;;;;;5102440;28;20048;-67
2023/09/13 11:47:55;;;;;;;;;;;23.60;99.90;;;;;;5108595;28;20495;-67
2023/09/13 11:50:22;;;;;;;5.25;3.90;;;23.60;99.90;;;;;;5088713;28;19953;-68
2023/09/13 11:53:12;;;;;;;4.47;3.42;;;23.70;99.90;;;;;;5098118;28;20430;-68
2023/09/13 11:55:58;;;;;;;;;;;23.80;99.90;;;;;;5094130;28;20043;-67
2023/09/13 11:58:30;;;;;;;5.22;3.97;;;23.80;99.90;;;;;;5097917;28;19903;-67
2023/09/13 12:00:57;;;;;;;4.68;3.70;;;23.70;99.90;;;;;;5096167;28;20027;-67
2023/09/13 12:03:22;;;;;;;3.72;3.38;;;23.80;99.90;;;;;;5103864;28;20046;-67
2023/09/13 12:05:48;;;;;;;4.82;3.20;;;23.70;99.90;;;;;;5107689;28;20380;-68
2023/09/13 12:08:22;;;;;;;4.70;3.70;;;23.90;99.90;;;;;;5095541;28;20035;-68
2023/09/13 12:10:49;;;;;;;5.80;3.17;;;24.10;99.90;;;;;;5106074;28;20066;-68
2023/09/13 12:13:15;;;;;;;5.25;3.40;;;24.40;99.90;;;;;;5104995;28;20027;-67
2023/09/13 12:16:00;;;;;;;4.13;3.67;;;24.50;99.90;;;;;;5090050;28;20043;-68
2023/09/13 12:18:26;;;;;;;5.88;3.47;;;24.70;99.90;;;;;;5096640;28;20436;-67
2023/09/13 12:20:56;;;;;;;4.65;3.33;;;24.70;99.90;;;;;;5082667;28;20101;-68
2023/09/13 12:23:21;;;;;;;3.92;3.40;;;24.80;99.90;;;;;;5104089;28;20028;-68
2023/09/13 12:25:48;;;;;;;3.75;3.22;;;24.80;99.90;;;;;;5096209;28;20024;-68
2023/09/13 12:28:28;;;;;;;3.58;3.28;;;24.80;99.90;;;;;;5109341;28;20036;-69
2023/09/13 12:30:54;;;;;;;6.95;3.08;;;24.90;99.90;;;;;;5101915;28;20050;-69
2023/09/13 12:33:21;;;;;;;3.97;3.13;;;25.20;99.90;;;;;;5085234;28;20391;-69
2023/09/13 12:35:48;;;;;;;3.47;3.17;;;25.30;99.90;;;;;;5101161;28;20028;-69
2023/09/13 12:38:16;;;;;;;5.10;3.63;;;25.40;99.90;;;;;;5109347;28;20089;-69
2023/09/13 12:40:48;;;;;;;4.43;3.25;;;25.60;99.90;;;;;;5105891;28;20024;-69
2023/09/13 12:43:13;;;;;;;3.80;3.40;;;26.00;99.90;;;;;;5103301;28;20095;-69
2023/09/13 12:45:40;;;;;;;3.30;3.00;;;26.50;99.90;;;;;;5103143;28;20126;-69